createdAt,value
2019-02-06T00:01:51.311Z,131.93
2019-02-06T00:04:55.493Z,125.23
2019-02-06T00:07:59.741Z,119.27
2019-02-06T00:11:05.334Z,115.97
2019-02-06T00:14:10.013Z,133.07
2019-02-06T00:17:14.124Z,118.20
2019-02-06T00:20:18.301Z,112.03
2019-02-06T00:23:22.662Z,114.93
2019-02-06T00:26:26.872Z,106.40
2019-02-06T00:29:31.030Z,109.77
2019-02-06T00:32:35.668Z,105.97
2019-02-06T00:35:39.815Z,114.43
2019-02-06T00:38:44.020Z,105.63
2019-02-06T00:41:48.189Z,106.80
2019-02-06T00:44:52.465Z,109.50
2019-02-06T00:47:56.725Z,107.63
2019-02-06T00:51:00.925Z,110.77
2019-02-06T00:54:05.101Z,106.77
2019-02-06T00:57:09.408Z,107.47
2019-02-06T01:00:33.569Z,115.37
2019-02-06T01:03:37.956Z,106.37
2019-02-06T01:06:42.144Z,110.70
2019-02-06T01:09:46.438Z,108.07
2019-02-06T01:12:50.714Z,106.77
2019-02-06T01:15:54.892Z,115.13
2019-02-06T01:18:59.104Z,116.87
2019-02-06T01:22:03.609Z,122.17
2019-02-06T01:25:09.072Z,114.33
2019-02-06T01:28:13.312Z,103.13
2019-02-06T01:31:22.559Z,119.53
2019-02-06T01:34:26.766Z,109.53
2019-02-06T01:37:30.949Z,113.23
2019-02-06T01:40:35.142Z,103.57
2019-02-06T01:43:39.333Z,106.03
2019-02-06T01:46:43.563Z,104.03
2019-02-06T01:49:47.812Z,105.80
2019-02-06T01:52:52.000Z,108.43
2019-02-06T01:55:56.181Z,107.30
2019-02-06T01:59:00.504Z,96.57
2019-02-06T02:02:04.664Z,97.87
2019-02-06T02:05:08.871Z,98.97
2019-02-06T02:08:13.047Z,96.93
2019-02-06T02:11:17.427Z,104.40
2019-02-06T02:14:21.588Z,107.80
2019-02-06T02:17:25.854Z,100.53
2019-02-06T02:20:30.032Z,101.67
2019-02-06T02:23:34.300Z,94.37
2019-02-06T02:26:38.389Z,96.57
2019-02-06T02:29:42.583Z,102.77
2019-02-06T02:32:46.760Z,100.03
2019-02-06T02:35:50.946Z,99.40
2019-02-06T02:38:55.116Z,102.07
2019-02-06T02:41:59.322Z,99.00
2019-02-06T02:45:03.471Z,104.47
2019-02-06T02:48:07.823Z,101.77
2019-02-06T02:51:12.046Z,95.87
2019-02-06T02:54:17.937Z,98.50
2019-02-06T02:57:22.119Z,105.13
2019-02-06T03:00:38.147Z,95.07
2019-02-06T03:03:47.173Z,101.70
2019-02-06T03:06:51.506Z,90.80
2019-02-06T03:09:55.784Z,99.83
2019-02-06T03:12:59.973Z,99.03
2019-02-06T03:16:04.136Z,94.67
2019-02-06T03:19:08.325Z,93.23
2019-02-06T03:22:12.523Z,98.67
2019-02-06T03:25:16.724Z,100.23
2019-02-06T03:28:20.894Z,101.00
2019-02-06T03:31:25.094Z,94.33
2019-02-06T03:34:29.195Z,97.27
2019-02-06T03:37:33.393Z,94.97
2019-02-06T03:40:37.576Z,93.97
2019-02-06T03:43:41.707Z,100.70
2019-02-06T03:46:45.878Z,100.03
2019-02-06T03:49:50.068Z,98.17
2019-02-06T03:52:54.247Z,104.63
2019-02-06T03:55:58.521Z,89.97
2019-02-06T03:59:02.683Z,96.50
2019-02-06T04:02:06.907Z,95.20
2019-02-06T04:05:11.325Z,94.50
2019-02-06T04:08:15.517Z,104.00
2019-02-06T04:11:19.789Z,101.37
2019-02-06T04:14:24.008Z,100.40
2019-02-06T04:17:28.088Z,100.50
2019-02-06T04:20:32.215Z,108.80
2019-02-06T04:23:36.368Z,98.63
2019-02-06T04:26:40.628Z,105.43
2019-02-06T04:29:44.785Z,97.93
2019-02-06T04:32:49.067Z,93.87
2019-02-06T04:35:53.222Z,101.67
2019-02-06T04:38:57.414Z,96.67
2019-02-06T04:42:01.592Z,95.90
2019-02-06T04:45:06.296Z,104.67
2019-02-06T04:48:10.392Z,101.23
2019-02-06T04:51:14.576Z,105.27
2019-02-06T04:54:18.778Z,100.70
2019-02-06T04:57:22.975Z,103.63
2019-02-06T05:00:27.203Z,107.70
2019-02-06T05:03:31.395Z,95.60
2019-02-06T05:06:35.578Z,101.40
2019-02-06T05:09:39.716Z,103.03
2019-02-06T05:12:43.884Z,103.70
2019-02-06T05:15:48.097Z,105.03
2019-02-06T05:18:52.276Z,107.77
2019-02-06T05:21:56.479Z,114.50
2019-02-06T05:25:00.773Z,104.13
2019-02-06T05:28:05.431Z,99.90
2019-02-06T05:31:09.612Z,109.80
2019-02-06T05:34:13.813Z,106.20
2019-02-06T05:37:31.116Z,112.47
2019-02-06T05:40:24.041Z,100.23
2019-02-06T05:43:28.229Z,105.40
2019-02-06T05:46:32.441Z,116.00
2019-02-06T05:49:36.605Z,109.00
2019-02-06T05:52:40.892Z,95.77
2019-02-06T05:55:45.184Z,103.53
2019-02-06T05:58:49.380Z,114.70
2019-02-06T06:02:12.033Z,103.03
2019-02-06T06:05:16.563Z,109.70
2019-02-06T06:08:20.736Z,105.70
2019-02-06T06:11:24.947Z,108.23
2019-02-06T06:14:29.532Z,116.00
2019-02-06T06:17:33.797Z,105.33
2019-02-06T06:20:38.821Z,104.23
2019-02-06T06:23:43.514Z,111.53
2019-02-06T06:26:47.749Z,112.20
2019-02-06T06:29:51.958Z,109.00
2019-02-06T06:32:56.522Z,114.33
2019-02-06T06:36:00.714Z,107.87
2019-02-06T06:39:07.472Z,109.43
2019-02-06T06:42:11.978Z,111.10
2019-02-06T06:45:19.639Z,117.50
2019-02-06T06:48:23.852Z,113.33
2019-02-06T06:51:28.022Z,107.10
2019-02-06T06:54:32.155Z,111.90
2019-02-06T06:57:36.386Z,114.23
2019-02-06T07:00:40.706Z,115.87
2019-02-06T07:03:44.803Z,118.70
2019-02-06T07:06:49.017Z,123.50
2019-02-06T07:09:53.214Z,113.50
2019-02-06T07:12:57.423Z,107.90
2019-02-06T07:16:01.588Z,120.30
2019-02-06T07:19:05.995Z,110.50
2019-02-06T07:22:10.171Z,113.47
2019-02-06T07:25:15.577Z,116.10
2019-02-06T07:28:19.761Z,112.07
2019-02-06T07:31:23.941Z,112.80
2019-02-06T07:34:28.172Z,112.10
2019-02-06T07:37:32.371Z,110.20
2019-02-06T07:40:36.562Z,113.13
2019-02-06T07:43:40.779Z,109.23
2019-02-06T07:46:44.959Z,112.97
2019-02-06T07:49:49.300Z,105.53
2019-02-06T07:52:53.673Z,114.77
2019-02-06T07:55:57.863Z,114.20
2019-02-06T07:59:02.040Z,102.27
2019-02-06T08:02:06.191Z,106.30
2019-02-06T08:05:12.453Z,116.90
2019-02-06T08:08:16.640Z,110.97
2019-02-06T08:11:20.812Z,114.60
2019-02-06T08:14:25.014Z,113.40
2019-02-06T08:17:29.187Z,108.70
2019-02-06T08:20:33.402Z,117.77
2019-02-06T08:23:37.592Z,111.03
2019-02-06T08:26:41.792Z,109.87
2019-02-06T08:29:46.036Z,112.93
2019-02-06T08:32:50.276Z,111.70
2019-02-06T08:35:54.479Z,112.20
2019-02-06T08:38:58.687Z,108.47
2019-02-06T08:42:04.285Z,111.83
2019-02-06T08:45:08.899Z,110.63
2019-02-06T08:48:13.051Z,112.43
2019-02-06T08:51:17.262Z,109.67
2019-02-06T08:54:21.447Z,105.13
2019-02-06T08:57:25.665Z,110.53
2019-02-06T09:00:31.717Z,111.37
2019-02-06T09:03:35.857Z,107.23
2019-02-06T09:06:40.044Z,116.43
2019-02-06T09:09:44.248Z,108.07
2019-02-06T09:12:48.900Z,110.00
2019-02-06T09:15:53.245Z,107.60
2019-02-06T09:18:57.399Z,111.63
2019-02-06T09:22:01.617Z,114.00
2019-02-06T09:25:06.745Z,113.27
2019-02-06T09:28:10.950Z,123.40
2019-02-06T09:31:15.345Z,118.10
2019-02-06T09:34:19.582Z,114.60
2019-02-06T09:37:23.668Z,109.23
2019-02-06T09:40:29.614Z,120.73
2019-02-06T09:43:33.914Z,103.87
2019-02-06T09:46:38.114Z,106.03
2019-02-06T09:49:42.281Z,114.57
2019-02-06T09:52:46.488Z,109.57
2019-02-06T09:55:53.274Z,98.90
2019-02-06T09:58:56.631Z,107.20
2019-02-06T10:02:01.065Z,106.87
2019-02-06T10:05:05.654Z,99.90
2019-02-06T10:08:09.817Z,108.03
2019-02-06T10:11:14.135Z,101.57
2019-02-06T10:14:18.308Z,99.70
2019-02-06T10:17:22.521Z,107.57
2019-02-06T10:20:29.179Z,100.20
2019-02-06T10:23:33.400Z,102.00
2019-02-06T10:26:37.890Z,104.27
2019-02-06T10:29:42.136Z,101.80
2019-02-06T10:32:46.405Z,101.03
2019-02-06T10:35:52.259Z,102.63
2019-02-06T10:38:56.788Z,100.57
2019-02-06T10:42:00.998Z,98.27
2019-02-06T10:45:06.076Z,96.27
2019-02-06T10:48:10.390Z,100.97
2019-02-06T10:51:14.999Z,94.73
2019-02-06T10:54:19.405Z,93.80
2019-02-06T10:57:23.569Z,90.77
2019-02-06T11:00:30.453Z,89.77
2019-02-06T11:03:34.652Z,102.47
2019-02-06T11:06:39.048Z,94.17
2019-02-06T11:09:46.522Z,89.57
2019-02-06T11:12:50.277Z,83.00
2019-02-06T11:15:54.461Z,93.77
2019-02-06T11:18:58.741Z,86.13
2019-02-06T11:22:02.940Z,85.43
2019-02-06T11:25:07.777Z,83.20
2019-02-06T11:28:11.940Z,83.47
2019-02-06T11:31:17.728Z,77.93
2019-02-06T11:34:22.072Z,88.60
2019-02-06T11:37:26.352Z,81.93
2019-02-06T11:40:30.524Z,81.57
2019-02-06T11:43:34.763Z,80.80
2019-02-06T11:46:39.000Z,79.97
2019-02-06T11:49:44.184Z,76.70
2019-02-06T11:52:48.875Z,74.87
2019-02-06T11:55:53.566Z,75.50
2019-02-06T11:58:57.829Z,75.53
2019-02-06T12:02:02.026Z,75.00
2019-02-06T12:05:06.682Z,73.47
2019-02-06T12:08:12.634Z,71.97
2019-02-06T12:11:16.835Z,71.93
2019-02-06T12:14:21.099Z,72.60
2019-02-06T12:17:25.284Z,66.80
2019-02-06T12:20:29.480Z,72.80
2019-02-06T12:23:33.647Z,67.13
2019-02-06T12:26:37.782Z,70.33
2019-02-06T12:29:41.959Z,72.90
2019-02-06T12:32:52.169Z,64.23
2019-02-06T12:35:52.283Z,56.73
2019-02-06T12:38:56.922Z,58.53
2019-02-06T12:42:01.111Z,64.60
2019-02-06T12:45:05.460Z,61.63
2019-02-06T12:48:09.645Z,60.93
2019-02-06T12:51:13.978Z,55.27
2019-02-06T12:54:18.520Z,61.20
2019-02-06T12:57:22.865Z,53.60
2019-02-06T13:00:28.904Z,58.90
2019-02-06T13:03:33.139Z,59.97
2019-02-06T13:06:37.568Z,59.53
2019-02-06T13:09:42.586Z,54.33
2019-02-06T13:12:46.772Z,55.93
2019-02-06T13:15:51.170Z,61.70
2019-02-06T13:18:55.581Z,53.23
2019-02-06T13:21:59.801Z,62.33
2019-02-06T13:25:04.025Z,59.67
2019-02-06T13:28:08.243Z,60.33
2019-02-06T13:31:12.512Z,58.97
2019-02-06T13:34:16.774Z,59.10
2019-02-06T13:37:21.395Z,59.07
2019-02-06T13:40:27.091Z,50.93
2019-02-06T13:43:31.268Z,49.40
2019-02-06T13:46:35.472Z,48.90
2019-02-06T13:49:39.841Z,55.67
2019-02-06T13:52:44.109Z,48.20
2019-02-06T13:55:48.848Z,46.37
2019-02-06T13:58:53.066Z,42.37
2019-02-06T14:01:57.561Z,42.63
2019-02-06T14:05:01.778Z,38.07
2019-02-06T14:08:11.334Z,38.47
2019-02-06T14:11:15.601Z,30.13
2019-02-06T14:14:20.143Z,25.43
2019-02-06T14:17:24.340Z,28.90
2019-02-06T14:20:28.572Z,27.67
2019-02-06T14:23:56.977Z,25.37
2019-02-06T14:28:03.788Z,23.77
2019-02-06T14:31:33.014Z,22.57
2019-02-06T14:34:57.412Z,28.97
2019-02-06T14:38:28.459Z,29.03
2019-02-06T14:41:55.717Z,27.33
2019-02-06T14:45:38.442Z,28.03
2019-02-06T14:49:08.919Z,25.63
2019-02-06T14:53:03.452Z,27.33
2019-02-06T14:56:33.971Z,26.67
2019-02-06T15:00:22.558Z,22.53
2019-02-06T15:04:09.656Z,21.23
2019-02-06T15:07:52.477Z,20.37
2019-02-06T15:11:24.347Z,19.43
2019-02-06T15:15:00.347Z,21.37
2019-02-06T15:18:30.361Z,19.27
2019-02-06T15:22:15.688Z,19.63
2019-02-06T15:25:57.040Z,20.97
2019-02-06T15:29:13.147Z,21.03
2019-02-06T15:32:43.996Z,23.43
2019-02-06T15:36:35.537Z,23.57
2019-02-06T15:40:13.173Z,25.00
2019-02-06T15:43:26.399Z,19.37
2019-02-06T15:47:13.337Z,21.83
2019-02-06T15:50:58.852Z,25.60
2019-02-06T15:54:32.873Z,32.93
2019-02-06T15:58:14.561Z,28.37
2019-02-06T16:01:31.543Z,25.73
2019-02-06T16:05:19.055Z,31.00
2019-02-06T16:08:29.395Z,26.87
2019-02-06T16:12:23.732Z,34.57
2019-02-06T16:16:06.411Z,41.13
2019-02-06T16:19:46.393Z,46.77
2019-02-06T16:23:22.360Z,105.83
2019-02-06T16:27:19.731Z,186.13
2019-02-06T16:30:39.584Z,206.83
2019-02-06T16:34:36.972Z,187.07
2019-02-06T16:37:58.944Z,173.13
2019-02-06T16:41:28.065Z,173.03
2019-02-06T16:44:58.944Z,176.63
2019-02-06T16:48:29.803Z,179.17
2019-02-06T16:51:54.246Z,183.37
2019-02-06T16:55:24.991Z,185.63
2019-02-06T16:58:50.990Z,177.97
2019-02-06T17:02:31.437Z,185.10
2019-02-06T17:05:47.617Z,191.30
2019-02-06T17:09:33.210Z,199.77
2019-02-06T17:13:36.905Z,212.83
2019-02-06T17:16:54.345Z,209.90
2019-02-06T17:20:27.155Z,214.87
2019-02-06T17:24:02.436Z,211.90
2019-02-06T17:27:37.321Z,209.90
2019-02-06T17:31:07.990Z,218.70
2019-02-06T17:34:46.917Z,205.10
2019-02-06T17:38:22.050Z,199.13
2019-02-06T17:41:54.553Z,193.10
2019-02-06T17:45:58.407Z,188.53
2019-02-06T17:50:05.057Z,197.53
2019-02-06T17:53:27.000Z,196.87
2019-02-06T17:56:31.191Z,193.23
2019-02-06T17:59:35.736Z,187.50
2019-02-06T18:02:40.103Z,188.90
2019-02-06T18:05:44.728Z,182.23
2019-02-06T18:08:56.413Z,183.33
2019-02-06T18:11:55.014Z,190.57
2019-02-06T18:14:59.318Z,182.73
2019-02-06T18:18:05.254Z,180.60
2019-02-06T18:21:09.512Z,197.70
2019-02-06T18:24:13.738Z,191.87
2019-02-06T18:27:19.660Z,199.13
2019-02-06T18:30:24.419Z,203.73
2019-02-06T18:33:28.684Z,214.70
2019-02-06T18:36:32.940Z,222.90
2019-02-06T18:39:37.200Z,249.67
2019-02-06T18:42:41.475Z,262.47
2019-02-06T18:45:46.108Z,281.60
2019-02-06T18:48:50.386Z,294.73
2019-02-06T18:51:54.565Z,331.30
2019-02-06T18:54:59.465Z,311.20
2019-02-06T18:58:03.735Z,315.13
2019-02-06T19:01:08.207Z,322.90
2019-02-06T19:04:15.461Z,298.07
2019-02-06T19:07:19.727Z,282.57
2019-02-06T19:10:24.519Z,281.20
2019-02-06T19:13:28.769Z,287.87
2019-02-06T19:16:32.956Z,276.23
2019-02-06T19:19:37.244Z,284.87
2019-02-06T19:22:41.450Z,282.90
2019-02-06T19:25:46.429Z,281.17
2019-02-06T19:28:50.844Z,275.00
2019-02-06T19:31:55.085Z,278.30
2019-02-06T19:34:59.414Z,274.70
2019-02-06T19:38:04.181Z,272.13
2019-02-06T19:41:08.404Z,261.57
2019-02-06T19:44:12.622Z,256.10
2019-02-06T19:47:16.949Z,291.43
2019-02-06T19:50:23.796Z,295.77
2019-02-06T19:53:28.080Z,275.43
2019-02-06T19:56:32.392Z,263.40
2019-02-06T19:59:36.679Z,273.50
2019-02-06T20:02:40.981Z,283.20
2019-02-06T20:05:45.168Z,282.73
2019-02-06T20:08:49.503Z,288.30
2019-02-06T20:11:54.232Z,298.33
2019-02-06T20:14:58.637Z,302.30
2019-02-06T20:18:02.815Z,296.07
2019-02-06T20:21:08.017Z,302.50
2019-02-06T20:24:12.361Z,288.27
2019-02-06T20:27:16.702Z,281.63
2019-02-06T20:30:23.727Z,296.07
2019-02-06T20:33:29.885Z,300.10
2019-02-06T20:36:33.934Z,306.57
2019-02-06T20:39:38.650Z,299.77
2019-02-06T20:42:42.838Z,325.43
2019-02-06T20:45:47.455Z,296.63
2019-02-06T20:48:51.732Z,311.80
2019-02-06T20:51:55.959Z,306.87
2019-02-06T20:55:00.314Z,286.10
2019-02-06T20:58:04.800Z,295.53
2019-02-06T21:01:08.998Z,298.77
2019-02-06T21:04:13.208Z,281.43
2019-02-06T21:07:17.410Z,285.40
2019-02-06T21:10:23.268Z,288.50
2019-02-06T21:13:33.308Z,274.90
2019-02-06T21:16:33.381Z,278.27
2019-02-06T21:19:37.569Z,295.07
2019-02-06T21:22:42.487Z,292.53
2019-02-06T21:25:48.527Z,293.37
2019-02-06T21:28:53.093Z,286.53
2019-02-06T21:31:58.464Z,296.50
2019-02-06T21:35:02.841Z,302.67
2019-02-06T21:38:07.032Z,292.73
2019-02-06T21:41:11.249Z,306.50
2019-02-06T21:44:15.653Z,315.73
2019-02-06T21:47:20.226Z,316.93
2019-02-06T21:50:24.575Z,305.43
2019-02-06T21:53:29.494Z,303.73
2019-02-06T21:56:33.678Z,323.97
2019-02-06T21:59:37.904Z,306.37
2019-02-06T22:02:42.616Z,315.90
2019-02-06T22:05:46.895Z,317.10
2019-02-06T22:08:51.440Z,303.80
2019-02-06T22:11:55.780Z,314.30
2019-02-06T22:14:59.997Z,316.60
2019-02-06T22:18:04.841Z,318.87
2019-02-06T22:21:09.432Z,368.80
2019-02-06T22:24:14.090Z,338.63
2019-02-06T22:27:18.773Z,323.57
2019-02-06T22:30:27.719Z,330.63
2019-02-06T22:33:32.489Z,336.80
2019-02-06T22:36:37.222Z,337.23
2019-02-06T22:39:42.022Z,332.67
2019-02-06T22:42:46.768Z,327.47
2019-02-06T22:45:51.588Z,329.37
2019-02-06T22:48:56.496Z,343.60
2019-02-06T22:52:01.364Z,334.97
2019-02-06T22:55:06.231Z,358.00
2019-02-06T22:58:11.103Z,363.23
2019-02-06T23:01:46.980Z,360.77
2019-02-06T23:04:51.531Z,334.40
2019-02-06T23:07:56.284Z,339.93
2019-02-06T23:11:01.054Z,355.97
2019-02-06T23:14:17.084Z,353.90
2019-02-06T23:17:17.135Z,356.90
2019-02-06T23:20:21.782Z,339.67
2019-02-06T23:23:26.451Z,361.60
2019-02-06T23:26:31.711Z,365.80
2019-02-06T23:29:36.472Z,336.73
2019-02-06T23:32:41.280Z,344.03
2019-02-06T23:35:48.480Z,353.43
2019-02-06T23:38:56.296Z,324.30
2019-02-06T23:42:01.177Z,352.60
2019-02-06T23:45:06.340Z,327.67
2019-02-06T23:48:11.104Z,324.17
2019-02-06T23:51:15.831Z,327.70
2019-02-06T23:54:20.511Z,332.70
2019-02-06T23:57:25.147Z,325.17
